createdAt,value
2023-04-01T00:02:56.654Z,38.42
2023-04-01T00:05:59.839Z,45.67
2023-04-01T00:09:02.304Z,40.85
2023-04-01T00:12:04.909Z,36.80
2023-04-01T00:15:09.920Z,36.83
2023-04-01T00:18:12.915Z,40.95
2023-04-01T00:21:15.695Z,35.08
2023-04-01T00:24:18.516Z,41.10
2023-04-01T00:27:21.515Z,41.60
2023-04-01T00:30:23.884Z,40.67
2023-04-01T00:33:26.485Z,37.05
2023-04-01T00:36:28.909Z,52.78
2023-04-01T00:39:32.698Z,37.17
2023-04-01T00:42:35.199Z,34.42
2023-04-01T00:45:39.877Z,39.20
2023-04-01T00:48:55.882Z,48.95
2023-04-01T00:52:00.636Z,38.13
2023-04-01T00:55:05.878Z,45.78
2023-04-01T00:58:11.675Z,36.70
2023-04-01T01:01:14.228Z,43.08
2023-04-01T01:04:30.158Z,38.25
2023-04-01T01:07:38.241Z,47.10
2023-04-01T01:10:41.237Z,38.22
2023-04-01T01:13:51.042Z,35.83
2023-04-01T01:17:01.083Z,43.42
2023-04-01T01:20:26.450Z,39.75
2023-04-01T01:23:48.529Z,36.78
2023-04-01T01:26:59.768Z,30.67
2023-04-01T01:30:20.647Z,32.15
2023-04-01T01:33:22.884Z,28.80
2023-04-01T01:36:28.798Z,34.38
2023-04-01T01:39:33.239Z,37.50
2023-04-01T01:42:38.917Z,33.65
2023-04-01T01:45:45.950Z,35.22
2023-04-01T01:48:49.320Z,36.95
2023-04-01T01:51:51.691Z,33.85
2023-04-01T01:54:56.060Z,33.10
2023-04-01T01:58:04.563Z,39.42
2023-04-01T02:01:15.705Z,35.15
2023-04-01T02:04:19.681Z,41.22
2023-04-01T02:07:26.225Z,32.80
2023-04-01T02:10:30.955Z,40.15
2023-04-01T02:13:54.050Z,40.80
2023-04-01T02:17:00.165Z,57.25
2023-04-01T02:20:18.072Z,52.28
2023-04-01T02:23:21.004Z,49.25
2023-04-01T02:26:24.398Z,48.80
2023-04-01T02:29:27.365Z,63.38
2023-04-01T02:32:31.021Z,56.42
2023-04-01T02:35:36.154Z,38.85
2023-04-01T02:38:38.751Z,52.95
2023-04-01T02:41:42.616Z,50.33
2023-04-01T02:44:44.970Z,43.13
2023-04-01T02:47:47.349Z,42.28
2023-04-01T02:50:50.539Z,42.67
2023-04-01T02:53:52.993Z,30.38
2023-04-01T02:56:55.503Z,27.30
2023-04-01T02:59:57.988Z,24.50
2023-04-01T03:03:01.298Z,30.08
2023-04-01T03:06:08.647Z,30.17
2023-04-01T03:09:11.697Z,31.15
2023-04-01T03:12:14.224Z,36.30
2023-04-01T03:15:25.420Z,37.45
2023-04-01T03:18:27.805Z,32.75
2023-04-01T03:21:30.343Z,38.28
2023-04-01T03:24:32.688Z,61.80
2023-04-01T03:27:38.938Z,55.83
2023-04-01T03:30:41.943Z,48.80
2023-04-01T03:33:45.475Z,49.57
2023-04-01T03:36:47.828Z,58.47
2023-04-01T03:39:50.776Z,53.97
2023-04-01T03:42:53.567Z,44.03
2023-04-01T03:45:57.720Z,37.10
2023-04-01T03:49:00.521Z,36.50
2023-04-01T03:52:02.890Z,33.35
2023-04-01T03:55:05.702Z,35.15
2023-04-01T03:58:09.006Z,34.30
2023-04-01T04:01:19.956Z,28.90
2023-04-01T04:04:23.309Z,37.45
2023-04-01T04:07:25.803Z,48.78
2023-04-01T04:10:41.148Z,38.83
2023-04-01T04:13:44.208Z,36.78
2023-04-01T04:16:47.012Z,40.58
2023-04-01T04:19:49.534Z,44.17
2023-04-01T04:22:52.569Z,44.45
2023-04-01T04:25:59.334Z,42.40
2023-04-01T04:29:04.035Z,55.05
2023-04-01T04:32:07.290Z,47.65
2023-04-01T04:35:10.106Z,46.50
2023-04-01T04:38:12.526Z,45.53
2023-04-01T04:41:19.656Z,59.38
2023-04-01T04:44:25.099Z,47.97
2023-04-01T04:47:27.567Z,59.90
2023-04-01T04:50:30.180Z,52.60
2023-04-01T04:53:33.110Z,51.45
2023-04-01T04:56:37.072Z,52.75
2023-04-01T04:59:42.250Z,54.17
2023-04-01T05:02:58.508Z,43.78
2023-04-01T05:06:01.106Z,44.05
2023-04-01T05:09:03.968Z,34.88
2023-04-01T05:12:06.392Z,41.45
2023-04-01T05:15:28.713Z,40.63
2023-04-01T05:18:31.300Z,39.28
2023-04-01T05:21:33.799Z,29.83
2023-04-01T05:24:36.861Z,28.57
2023-04-01T05:27:39.208Z,30.58
2023-04-01T05:30:43.059Z,24.02
2023-04-01T05:34:00.050Z,23.00
2023-04-01T05:37:02.652Z,19.77
2023-04-01T05:40:05.919Z,21.27
2023-04-01T05:43:08.402Z,20.93
2023-04-01T05:46:10.844Z,26.33
2023-04-01T05:49:22.696Z,38.58
2023-04-01T05:52:26.626Z,28.75
2023-04-01T05:55:29.006Z,43.70
2023-04-01T05:58:32.049Z,39.13
2023-04-01T06:01:34.445Z,40.15
2023-04-01T06:04:41.018Z,37.92
2023-04-01T06:07:43.809Z,35.42
2023-04-01T06:11:14.758Z,32.55
2023-04-01T06:14:29.271Z,27.58
2023-04-01T06:17:56.631Z,28.52
2023-04-01T06:21:13.665Z,27.90
2023-04-01T06:24:54.374Z,29.55
2023-04-01T06:28:15.598Z,20.15
2023-04-01T06:31:37.157Z,20.27
2023-04-01T06:35:08.842Z,21.08
2023-04-01T06:38:23.524Z,18.40
2023-04-01T06:41:36.113Z,15.43
2023-04-01T06:44:51.239Z,19.60
2023-04-01T06:48:39.094Z,15.00
2023-04-01T06:52:35.776Z,16.25
2023-04-01T07:13:35.976Z,19.75
2023-04-01T07:17:06.198Z,16.98
2023-04-01T07:20:28.025Z,11.27
2023-04-01T07:23:34.931Z,11.95
2023-04-01T07:26:44.227Z,12.57
2023-04-01T07:29:50.792Z,12.00
2023-04-01T07:33:05.264Z,18.38
2023-04-01T07:36:15.681Z,15.48
2023-04-01T07:39:30.540Z,15.65
2023-04-01T07:43:11.746Z,14.18
2023-04-01T07:46:31.654Z,11.45
2023-04-01T07:50:12.502Z,7.88
2023-04-01T07:53:21.757Z,12.60
2023-04-01T07:56:30.177Z,12.52
2023-04-01T07:59:44.974Z,11.75
2023-04-01T08:03:37.921Z,14.95
2023-04-01T08:06:54.445Z,11.40
2023-04-01T08:13:48.216Z,11.82
2023-04-01T08:17:43.153Z,16.65
2023-04-01T08:21:01.672Z,11.35
2023-04-01T08:24:22.883Z,13.52
2023-04-01T08:27:45.380Z,16.75
2023-04-01T08:30:57.142Z,19.15
2023-04-01T08:33:59.924Z,16.52
2023-04-01T08:37:09.211Z,13.15
2023-04-01T08:40:37.447Z,16.88
2023-04-01T08:43:45.817Z,18.55
2023-04-01T08:47:22.288Z,17.02
2023-04-01T08:50:42.806Z,19.83
2023-04-01T08:54:14.700Z,16.17
2023-04-01T08:57:31.843Z,17.92
2023-04-01T09:01:22.630Z,14.73
2023-04-01T09:04:41.436Z,16.35
2023-04-01T09:07:55.985Z,18.50
2023-04-01T09:11:14.710Z,33.75
2023-04-01T09:14:58.921Z,37.08
2023-04-01T09:18:27.713Z,38.58
2023-04-01T09:21:52.709Z,34.45
2023-04-01T09:25:02.584Z,30.45
2023-04-01T09:28:23.248Z,34.95
2023-04-01T09:31:40.515Z,33.22
2023-04-01T09:35:24.148Z,46.10
2023-04-01T09:38:42.176Z,45.40
2023-04-01T09:41:59.621Z,54.28
2023-04-01T09:45:37.101Z,32.83
2023-04-01T09:48:57.999Z,39.67
2023-04-01T09:52:18.828Z,39.55
2023-04-01T09:55:39.361Z,28.50
2023-04-01T09:58:56.634Z,30.70
2023-04-01T10:02:35.152Z,25.90
2023-04-01T10:06:17.260Z,25.60
2023-04-01T10:09:44.207Z,25.63
2023-04-01T10:13:16.841Z,19.05
2023-04-01T10:16:37.049Z,23.27
2023-04-01T10:20:02.111Z,21.15
2023-04-01T10:23:16.395Z,20.17
2023-04-01T10:27:10.554Z,18.63
2023-04-01T10:30:44.871Z,17.48
2023-04-01T10:34:31.577Z,17.70
2023-04-01T10:37:53.070Z,18.65
2023-04-01T10:41:31.124Z,12.02
2023-04-01T10:45:11.492Z,13.43
2023-04-01T10:48:26.180Z,15.15
2023-04-01T10:51:46.245Z,16.45
2023-04-01T10:55:21.216Z,18.75
2023-04-01T10:59:20.052Z,14.35
2023-04-01T11:03:38.778Z,17.95
2023-04-01T11:07:37.580Z,16.20
2023-04-01T11:11:18.667Z,12.02
2023-04-01T11:14:37.324Z,13.68
2023-04-01T11:18:16.407Z,11.75
2023-04-01T11:21:50.717Z,7.93
2023-04-01T11:25:06.593Z,10.70
2023-04-01T11:28:21.051Z,13.93
2023-04-01T11:31:44.485Z,12.35
2023-04-01T11:35:03.473Z,9.75
2023-04-01T11:38:36.781Z,10.13
2023-04-01T11:42:19.047Z,8.38
2023-04-01T11:45:58.770Z,11.70
2023-04-01T11:49:26.997Z,9.52
2023-04-01T11:52:57.279Z,11.50
2023-04-01T11:59:32.470Z,11.25
2023-04-01T12:03:01.276Z,12.30
2023-04-01T12:06:32.161Z,7.95
2023-04-01T12:09:59.377Z,7.90
2023-04-01T12:13:08.630Z,9.15
2023-04-01T12:16:16.986Z,9.07
2023-04-01T12:20:03.634Z,9.63
2023-04-01T12:23:43.735Z,10.13
2023-04-01T12:27:01.227Z,9.88
2023-04-01T12:30:44.774Z,30.33
2023-04-01T12:34:00.033Z,24.38
2023-04-01T12:37:02.292Z,45.08
2023-04-01T12:40:10.661Z,40.85
2023-04-01T12:43:46.855Z,27.70
2023-04-01T12:47:01.576Z,21.35
2023-04-01T12:51:01.138Z,21.52
2023-04-01T12:54:20.612Z,14.48
2023-04-01T12:57:41.100Z,19.20
2023-04-01T13:00:59.890Z,15.35
2023-04-01T13:04:27.492Z,12.30
2023-04-01T13:07:36.206Z,33.70
2023-04-01T13:10:38.467Z,38.05
2023-04-01T13:13:58.359Z,20.60
2023-04-01T13:17:22.313Z,11.07
2023-04-01T13:20:34.843Z,12.50
2023-04-01T13:23:56.482Z,20.88
2023-04-01T13:26:58.853Z,41.58
2023-04-01T13:30:32.552Z,18.25
2023-04-01T13:33:46.125Z,29.40
2023-04-01T13:37:27.259Z,19.77
2023-04-01T13:40:55.775Z,11.88
2023-04-01T13:44:24.853Z,22.42
2023-04-01T13:47:48.138Z,17.63
2023-04-01T13:51:01.924Z,14.05
2023-04-01T13:54:22.037Z,13.40
2023-04-01T13:57:56.403Z,9.77
2023-04-01T14:01:02.573Z,12.85
2023-04-01T14:04:15.024Z,11.90
2023-04-01T14:07:35.797Z,17.35
2023-04-01T14:10:41.381Z,17.27
2023-04-01T14:14:05.595Z,17.23
2023-04-01T14:17:37.514Z,11.30
2023-04-01T14:21:08.291Z,16.08
2023-04-01T14:24:46.917Z,65.00
2023-04-01T14:28:01.671Z,16.98
2023-04-01T14:31:39.124Z,29.13
2023-04-01T14:34:49.260Z,12.68
2023-04-01T14:37:57.185Z,10.80
2023-04-01T14:41:08.216Z,20.10
2023-04-01T14:44:24.353Z,28.20
2023-04-01T14:47:41.865Z,58.10
2023-04-01T14:50:47.691Z,30.45
2023-04-01T14:54:02.290Z,22.48
2023-04-01T14:57:14.093Z,8.57
2023-04-01T15:00:19.439Z,10.32
2023-04-01T15:03:27.331Z,12.60
2023-04-01T15:06:53.523Z,47.58
2023-04-01T15:10:21.035Z,76.38
2023-04-01T15:13:32.277Z,28.40
2023-04-01T15:16:36.477Z,18.85
2023-04-01T15:22:53.360Z,9.25
2023-04-01T15:26:50.050Z,14.50
2023-04-01T15:30:06.047Z,42.35
2023-04-01T15:33:15.205Z,32.47
2023-04-01T15:36:20.298Z,17.95
2023-04-01T15:39:56.903Z,11.63
2023-04-01T15:43:15.887Z,10.45
2023-04-01T15:46:37.121Z,19.00
2023-04-01T15:49:43.601Z,18.48
2023-04-01T15:53:03.031Z,18.38
2023-04-01T15:56:25.163Z,14.13
2023-04-01T15:59:53.654Z,11.00
2023-04-01T16:03:17.679Z,14.10
2023-04-01T16:06:56.321Z,12.98
2023-04-01T16:10:04.922Z,15.35
2023-04-01T16:13:26.063Z,15.80
2023-04-01T16:16:52.629Z,30.42
2023-04-01T16:20:01.341Z,17.20
2023-04-01T16:23:12.775Z,13.20
2023-04-01T16:26:30.757Z,16.05
2023-04-01T16:29:51.659Z,10.38
2023-04-01T16:33:26.165Z,8.38
2023-04-01T16:36:39.577Z,12.85
2023-04-01T16:40:12.919Z,24.40
2023-04-01T16:43:22.457Z,17.35
2023-04-01T16:47:00.647Z,9.77
2023-04-01T16:50:22.984Z,12.13
2023-04-01T16:53:37.622Z,7.85
2023-04-01T17:00:39.482Z,11.38
2023-04-01T17:03:46.600Z,13.23
2023-04-01T17:11:04.641Z,10.98
2023-04-01T17:14:20.720Z,10.15
2023-04-01T17:17:41.343Z,9.55
2023-04-01T17:20:48.305Z,9.45
2023-04-01T17:23:55.890Z,11.13
2023-04-01T17:27:40.016Z,9.40
2023-04-01T17:31:03.757Z,14.57
2023-04-01T17:34:40.363Z,6.90
2023-04-01T17:38:13.687Z,9.55
2023-04-01T17:42:05.576Z,9.05
2023-04-01T17:45:31.676Z,9.75
2023-04-01T17:49:04.765Z,8.23
2023-04-01T17:52:26.066Z,8.40
2023-04-01T17:55:52.275Z,9.73
2023-04-01T17:59:29.009Z,10.25
2023-04-01T18:02:33.934Z,8.35
2023-04-01T18:05:50.922Z,8.70
2023-04-01T18:09:11.436Z,9.60
2023-04-01T18:12:28.490Z,8.23
2023-04-01T18:15:43.555Z,8.57
2023-04-01T18:18:54.966Z,6.95
2023-04-01T18:22:12.516Z,6.68
2023-04-01T18:25:37.923Z,8.10
2023-04-01T18:28:45.788Z,6.68
2023-04-01T18:31:51.764Z,10.15
2023-04-01T18:35:31.461Z,7.03
2023-04-01T18:38:39.055Z,6.65
2023-04-01T18:42:19.688Z,7.25
2023-04-01T18:45:35.667Z,5.40
2023-04-01T18:49:04.444Z,4.35
2023-04-01T18:52:18.554Z,4.63
2023-04-01T18:55:27.503Z,4.97
2023-04-01T18:58:36.632Z,6.18
2023-04-01T19:01:50.974Z,5.82
2023-04-01T19:05:07.825Z,5.53
2023-04-01T19:08:40.396Z,5.63
2023-04-01T19:12:05.901Z,5.30
2023-04-01T19:15:31.024Z,5.80
2023-04-01T19:18:42.762Z,4.63
2023-04-01T19:22:20.298Z,4.40
2023-04-01T19:25:32.621Z,5.32
2023-04-01T19:28:55.764Z,5.50
2023-04-01T19:32:24.092Z,6.55
2023-04-01T19:35:45.849Z,6.38
2023-04-01T19:38:55.180Z,6.10
2023-04-01T19:42:31.616Z,7.50
2023-04-01T19:46:16.947Z,6.20
2023-04-01T19:49:45.323Z,8.05
2023-04-01T19:52:49.621Z,7.47
2023-04-01T19:56:13.027Z,11.07
2023-04-01T19:59:25.044Z,10.93
2023-04-01T20:02:55.104Z,8.55
2023-04-01T20:06:16.370Z,8.82
2023-04-01T20:09:44.501Z,9.68
2023-04-01T20:13:04.271Z,9.27
2023-04-01T20:16:09.151Z,10.98
2023-04-01T20:19:11.974Z,9.25
2023-04-01T20:22:53.937Z,12.20
2023-04-01T20:26:09.899Z,9.43
2023-04-01T20:29:37.777Z,10.93
2023-04-01T20:32:49.081Z,10.02
2023-04-01T20:36:23.850Z,9.32
2023-04-01T20:43:04.202Z,11.40
2023-04-01T20:46:17.928Z,8.27
2023-04-01T20:49:46.069Z,7.60
2023-04-01T20:53:03.652Z,8.30
2023-04-01T20:56:18.106Z,9.07
2023-04-01T20:59:42.132Z,7.85
2023-04-01T21:02:54.238Z,9.05
2023-04-01T21:06:14.959Z,8.68
2023-04-01T21:09:24.442Z,7.32
2023-04-01T21:12:50.218Z,11.75
2023-04-01T21:15:55.217Z,9.70
2023-04-01T21:19:06.258Z,8.90
2023-04-01T21:22:13.689Z,8.13
2023-04-01T21:25:40.208Z,11.05
2023-04-01T21:28:45.350Z,9.60
2023-04-01T21:31:47.803Z,7.43
2023-04-01T21:34:59.202Z,7.65
2023-04-01T21:38:19.658Z,7.45
2023-04-01T21:41:31.568Z,8.80
2023-04-01T21:45:07.790Z,9.02
2023-04-01T21:48:42.305Z,7.78
2023-04-01T21:55:00.660Z,8.27
2023-04-01T21:58:39.323Z,9.35
2023-04-01T22:01:47.748Z,7.10
2023-04-01T22:05:01.804Z,8.40
2023-04-01T22:08:22.588Z,7.78
2023-04-01T22:11:46.139Z,6.15
2023-04-01T22:15:02.130Z,6.83
2023-04-01T22:18:17.512Z,6.03
2023-04-01T22:21:24.855Z,6.13
2023-04-01T22:24:54.607Z,6.85
2023-04-01T22:28:05.182Z,8.65
2023-04-01T22:31:09.435Z,5.97
2023-04-01T22:34:35.373Z,4.70
2023-04-01T22:37:40.717Z,7.28
2023-04-01T22:41:27.609Z,5.47
2023-04-01T22:44:36.758Z,4.97
2023-04-01T22:48:07.258Z,5.00
2023-04-01T22:51:17.862Z,5.50
2023-04-01T22:54:20.184Z,4.70
2023-04-01T22:57:31.665Z,5.50
2023-04-01T23:00:38.065Z,4.75
2023-04-01T23:03:43.003Z,4.97
2023-04-01T23:06:49.860Z,4.97
2023-04-01T23:09:53.253Z,5.38
2023-04-01T23:13:00.024Z,6.95
2023-04-01T23:16:02.991Z,4.68
2023-04-01T23:19:23.403Z,4.57
2023-04-01T23:22:58.994Z,5.65
2023-04-01T23:26:14.377Z,5.40
2023-04-01T23:29:18.338Z,4.28
2023-04-01T23:35:23.393Z,5.97
2023-04-01T23:38:27.420Z,5.53
2023-04-01T23:44:35.035Z,7.03
2023-04-01T23:50:42.222Z,4.38
2023-04-01T23:53:48.681Z,4.43
2023-04-01T23:56:56.681Z,4.10
